Westhampton, NY

6:29 PM EST on December 21, 2014 (GMT -0500)
Newport Beach | Change Station
CLOSE
Current Station
Personal Weather Station
Location: East Moriches, NY
Elevation: 30 ft
Nearby Weather Stations

Elev 30 ft 40.81 °N, 72.73 °W | Updated 5 seconds ago

Overcast
Overcast
36.7 °F
Feels Like 37 °F
N
0.0
Wind Variable Wind from NE
Gusts 5.0 mph

Today
High -- | Low -- °F
--% Chance of Precip.
Yesterday
High -- | Low -- °F
Precip. -- in
7:11 AM 4:26 PM
Waning Crescent, 0% visible
Pressure 30.30 in
Visibility 10.0 miles
Clouds Overcast 1000 ft
Windchill 37 °F
Dew Point 35 °F
Humidity 93%
Rainfall 0.00 in
Snow Depth Not available.
UV 0 out of 12
Pollen .10 out of 12
Air Quality Not available.
Flu Activity Not available.
METAR KFOK 212253Z 35007KT 10SM OVC010 03/02 A3030 RMK AO2 SLP259 T00280017

More Conditions Fewer Conditions

Pressure 30.30 in
Visibility 10.0 miles
Clouds Overcast 1000 ft
Windchill 37 °F
Dew Point 35 °F
Humidity 93%
Rainfall 0.00 in
Snow Depth Not available.
UV 0 out of 12
Pollen .10 out of 12
Air Quality Not available.
Flu Activity Not available.
METAR KFOK 212253Z 35007KT 10SM OVC010 03/02 A3030 RMK AO2 SLP259 T00280017

More Conditions Fewer Conditions

10-Day Weather Forecast

Almanac

Astronomy

Dec. 21, 2014 Rise Set
Actual Time
Civil Twilight
Nautical Twilight
Astronomical Twilight
Moon
Length of Visible Light
Length of Day
Tomorrow will be .
, % of the Moon is Illuminated

Today's Extremes

State Highs State Lows

Community

WunderPhotos

Upload Photos

1,779,502 photos uploaded!

WunderBlogs® & News

Nearby

Air Quality

  Air Quality AQ Index Pollutant
Not available.

Snow Depth

Station Depth Elevation

Earthquake Activity

City Distance Mag. Time & Date
Minimum magnitude displayed is 2.5.

Coastal Water Temperatures

Place Temperature

Nearby Weather Stations